Pittsfield, Massachusetts
Current Conditions -  °F | °C
As of 7:54 AM on Tuesday 21 Oct 2014 (Local Time) from KPSF Reporting Station
Light Rain Light Rain  
Wind Chill: 44°   Ceiling: 6000
Heat Index: 44°   Visibility: 6mi
Dew Point: 43°   Wind: 0mph
Humidity: 96%   Direction: NA
Pressure: 29.91"   Gusts: NA
Location:  42.45°N, 73.25°W
Report Text: KPSF 211154Z AUTO 00000KT 6SM -RA BR FEW046 OVC060 07/06 A2991 RMK AO2 RAB1057 SLP125 P0001 60002 70003 T00670061 10067 20056 53001
Loading
Personal Weather Stations






























Interactive Weather Map
Tropical Storm Tracking
New forecast layout! Learn more

10-Day Weather Forecast

Advertisements
Track Severe Weather on mobile